sensor_id;sensor_type;location;lat;lon;timestamp;pressure;altitude;pressure_sealevel;temperature;humidity
67803;BME280;54601;51.378;-1.342;2023-04-07T00:02:01;100571.86;;;19.07;29.67
67803;BME280;54601;51.378;-1.342;2023-04-07T00:04:26;100570.86;;;19.00;29.77
67803;BME280;54601;51.378;-1.342;2023-04-07T00:06:51;100571.90;;;19.03;29.72
67803;BME280;54601;51.378;-1.342;2023-04-07T00:09:16;100575.26;;;19.01;29.79
67803;BME280;54601;51.378;-1.342;2023-04-07T00:11:41;100581.79;;;18.91;29.82
67803;BME280;54601;51.378;-1.342;2023-04-07T00:14:06;100582.92;;;19.03;29.75
67803;BME280;54601;51.378;-1.342;2023-04-07T00:16:31;100585.70;;;19.03;29.75
67803;BME280;54601;51.378;-1.342;2023-04-07T00:18:56;100587.45;;;18.97;29.83
67803;BME280;54601;51.378;-1.342;2023-04-07T00:21:21;100588.20;;;18.97;29.85
67803;BME280;54601;51.378;-1.342;2023-04-07T00:23:47;100588.32;;;19.00;29.80
67803;BME280;54601;51.378;-1.342;2023-04-07T00:26:12;100592.44;;;18.97;29.85
67803;BME280;54601;51.378;-1.342;2023-04-07T00:28:37;100590.76;;;19.04;29.77
67803;BME280;54601;51.378;-1.342;2023-04-07T00:31:02;100585.19;;;18.99;29.85
67803;BME280;54601;51.378;-1.342;2023-04-07T00:33:27;100580.68;;;18.88;29.95
67803;BME280;54601;51.378;-1.342;2023-04-07T00:35:53;100583.95;;;18.93;29.90
67803;BME280;54601;51.378;-1.342;2023-04-07T00:38:18;100587.78;;;18.94;29.92
67803;BME280;54601;51.378;-1.342;2023-04-07T00:40:43;100590.59;;;18.91;29.96
67803;BME280;54601;51.378;-1.342;2023-04-07T00:43:08;100590.99;;;18.65;30.00
67803;BME280;54601;51.378;-1.342;2023-04-07T00:45:33;100588.39;;;18.68;30.21
67803;BME280;54601;51.378;-1.342;2023-04-07T00:47:59;100587.12;;;18.86;30.04
67803;BME280;54601;51.378;-1.342;2023-04-07T00:50:24;100582.04;;;18.78;30.10
67803;BME280;54601;51.378;-1.342;2023-04-07T00:52:49;100580.96;;;18.85;30.04
67803;BME280;54601;51.378;-1.342;2023-04-07T00:55:14;100586.39;;;18.89;29.99
67803;BME280;54601;51.378;-1.342;2023-04-07T00:57:39;100589.47;;;18.62;30.30
67803;BME280;54601;51.378;-1.342;2023-04-07T01:00:07;100588.84;;;18.79;30.13
67803;BME280;54601;51.378;-1.342;2023-04-07T01:02:33;100589.99;;;18.88;30.04
67803;BME280;54601;51.378;-1.342;2023-04-07T01:05:01;100591.05;;;18.91;30.04
67803;BME280;54601;51.378;-1.342;2023-04-07T01:07:23;100589.37;;;18.93;30.01
67803;BME280;54601;51.378;-1.342;2023-04-07T01:09:50;100584.53;;;18.92;30.00
67803;BME280;54601;51.378;-1.342;2023-04-07T01:12:15;100582.87;;;18.91;30.02
67803;BME280;54601;51.378;-1.342;2023-04-07T01:14:40;100579.83;;;18.92;30.01
67803;BME280;54601;51.378;-1.342;2023-04-07T01:17:01;100579.94;;;18.86;30.07
67803;BME280;54601;51.378;-1.342;2023-04-07T01:19:33;100579.12;;;18.68;30.05
67803;BME280;54601;51.378;-1.342;2023-04-07T01:21:52;100579.95;;;19.00;29.95
67803;BME280;54601;51.378;-1.342;2023-04-07T01:26:41;100583.83;;;19.26;29.67
67803;BME280;54601;51.378;-1.342;2023-04-07T01:31:31;100581.65;;;19.46;29.47
67803;BME280;54601;51.378;-1.342;2023-04-07T01:33:58;100580.29;;;19.49;29.43
67803;BME280;54601;51.378;-1.342;2023-04-07T01:36:21;100582.29;;;19.32;29.37
67803;BME280;54601;51.378;-1.342;2023-04-07T01:38:48;100578.12;;;19.64;29.27
67803;BME280;54601;51.378;-1.342;2023-04-07T01:41:13;100575.80;;;19.34;29.35
67803;BME280;54601;51.378;-1.342;2023-04-07T01:43:38;100575.47;;;19.52;29.41
67803;BME280;54601;51.378;-1.342;2023-04-07T01:46:03;100577.21;;;19.38;29.56
67803;BME280;54601;51.378;-1.342;2023-04-07T01:48:27;100576.69;;;19.43;29.54
67803;BME280;54601;51.378;-1.342;2023-04-07T01:50:52;100576.17;;;19.31;29.43
67803;BME280;54601;51.378;-1.342;2023-04-07T01:53:17;100579.31;;;19.22;29.52
67803;BME280;54601;51.378;-1.342;2023-04-07T01:55:42;100579.67;;;19.51;29.44
67803;BME280;54601;51.378;-1.342;2023-04-07T01:58:07;100577.24;;;19.32;29.41
67803;BME280;54601;51.378;-1.342;2023-04-07T02:00:33;100581.53;;;19.32;29.41
67803;BME280;54601;51.378;-1.342;2023-04-07T02:03:02;100579.64;;;19.11;29.33
67803;BME280;54601;51.378;-1.342;2023-04-07T02:05:23;100580.26;;;19.27;29.46
67803;BME280;54601;51.378;-1.342;2023-04-07T02:07:51;100581.04;;;19.19;29.24
67803;BME280;54601;51.378;-1.342;2023-04-07T02:10:15;100582.38;;;19.16;29.31
67803;BME280;54601;51.378;-1.342;2023-04-07T02:12:39;100580.77;;;19.49;29.25
67803;BME280;54601;51.378;-1.342;2023-04-07T02:15:05;100578.62;;;19.46;29.27
67803;BME280;54601;51.378;-1.342;2023-04-07T02:17:29;100580.86;;;19.43;29.31
67803;BME280;54601;51.378;-1.342;2023-04-07T02:19:55;100583.07;;;19.35;29.38
67803;BME280;54601;51.378;-1.342;2023-04-07T02:22:19;100586.34;;;19.29;29.44
67803;BME280;54601;51.378;-1.342;2023-04-07T02:24:44;100585.29;;;19.23;29.52
67803;BME280;54601;51.378;-1.342;2023-04-07T02:27:09;100582.69;;;19.50;29.50
67803;BME280;54601;51.378;-1.342;2023-04-07T02:29:34;100583.41;;;19.06;29.41
67803;BME280;54601;51.378;-1.342;2023-04-07T02:31:59;100586.38;;;19.22;29.53
67803;BME280;54601;51.378;-1.342;2023-04-07T02:34:24;100589.78;;;18.99;29.48
67803;BME280;54601;51.378;-1.342;2023-04-07T02:36:50;100590.01;;;19.02;29.41
67803;BME280;54601;51.378;-1.342;2023-04-07T02:39:15;100587.70;;;19.24;29.50
67803;BME280;54601;51.378;-1.342;2023-04-07T02:41:40;100587.46;;;19.54;29.36
67803;BME280;54601;51.378;-1.342;2023-04-07T02:44:05;100588.00;;;19.40;29.29
67803;BME280;54601;51.378;-1.342;2023-04-07T02:46:30;100590.36;;;19.48;29.43
67803;BME280;54601;51.378;-1.342;2023-04-07T02:48:55;100589.17;;;19.11;29.29
67803;BME280;54601;51.378;-1.342;2023-04-07T02:51:21;100587.77;;;19.52;29.35
67803;BME280;54601;51.378;-1.342;2023-04-07T02:53:46;100583.22;;;19.42;29.22
67803;BME280;54601;51.378;-1.342;2023-04-07T02:56:11;100582.58;;;19.40;29.22
67803;BME280;54601;51.378;-1.342;2023-04-07T02:58:36;100584.16;;;19.36;29.27
67803;BME280;54601;51.378;-1.342;2023-04-07T03:01:01;100585.03;;;19.10;29.23
67803;BME280;54601;51.378;-1.342;2023-04-07T03:03:26;100587.46;;;19.42;29.19
67803;BME280;54601;51.378;-1.342;2023-04-07T03:05:51;100586.00;;;19.41;29.16
67803;BME280;54601;51.378;-1.342;2023-04-07T03:08:17;100586.93;;;19.10;29.19
67803;BME280;54601;51.378;-1.342;2023-04-07T03:10:42;100588.78;;;19.47;29.13
67803;BME280;54601;51.378;-1.342;2023-04-07T03:13:07;100586.47;;;19.62;29.14
67803;BME280;54601;51.378;-1.342;2023-04-07T03:15:32;100586.13;;;19.44;29.06
67803;BME280;54601;51.378;-1.342;2023-04-07T03:17:57;100589.67;;;19.37;29.12
67803;BME280;54601;51.378;-1.342;2023-04-07T03:20:22;100587.69;;;19.43;29.08
67803;BME280;54601;51.378;-1.342;2023-04-07T03:22:47;100589.84;;;19.30;29.17
67803;BME280;54601;51.378;-1.342;2023-04-07T03:25:13;100585.00;;;19.40;29.08
67803;BME280;54601;51.378;-1.342;2023-04-07T03:27:38;100586.27;;;19.35;29.12
67803;BME280;54601;51.378;-1.342;2023-04-07T03:30:04;100589.39;;;19.40;29.03
67803;BME280;54601;51.378;-1.342;2023-04-07T03:32:28;100587.44;;;19.51;28.92
67803;BME280;54601;51.378;-1.342;2023-04-07T03:34:53;100587.26;;;19.47;28.91
67803;BME280;54601;51.378;-1.342;2023-04-07T03:37:18;100588.73;;;19.53;28.84
67803;BME280;54601;51.378;-1.342;2023-04-07T03:39:44;100586.17;;;19.19;28.91
67803;BME280;54601;51.378;-1.342;2023-04-07T03:42:09;100585.95;;;19.39;28.93
67803;BME280;54601;51.378;-1.342;2023-04-07T03:44:34;100587.32;;;19.55;28.79
67803;BME280;54601;51.378;-1.342;2023-04-07T03:47:00;100585.16;;;19.22;28.79
67803;BME280;54601;51.378;-1.342;2023-04-07T03:49:24;100581.03;;;19.39;28.88
67803;BME280;54601;51.378;-1.342;2023-04-07T03:51:49;100580.25;;;19.42;28.82
67803;BME280;54601;51.378;-1.342;2023-04-07T03:54:15;100582.11;;;19.52;28.73
67803;BME280;54601;51.378;-1.342;2023-04-07T03:56:40;100585.36;;;19.27;28.67
67803;BME280;54601;51.378;-1.342;2023-04-07T03:59:06;100587.83;;;19.68;28.76
67803;BME280;54601;51.378;-1.342;2023-04-07T04:01:30;100590.96;;;19.37;28.54
67803;BME280;54601;51.378;-1.342;2023-04-07T04:03:55;100594.27;;;19.00;28.94
67803;BME280;54601;51.378;-1.342;2023-04-07T04:06:20;100598.27;;;18.92;29.00
67803;BME280;54601;51.378;-1.342;2023-04-07T04:08:45;100602.74;;;19.23;29.15
67803;BME280;54601;51.378;-1.342;2023-04-07T04:11:11;100606.06;;;19.18;29.22
67803;BME280;54601;51.378;-1.342;2023-04-07T04:13:36;100603.66;;;19.18;29.18
67803;BME280;54601;51.378;-1.342;2023-04-07T04:16:01;100600.03;;;19.18;29.18
67803;BME280;54601;51.378;-1.342;2023-04-07T04:18:26;100601.68;;;19.11;29.24
67803;BME280;54601;51.378;-1.342;2023-04-07T04:20:51;100602.59;;;18.90;29.22
67803;BME280;54601;51.378;-1.342;2023-04-07T04:23:16;100602.16;;;18.85;29.29
67803;BME280;54601;51.378;-1.342;2023-04-07T04:25:42;100601.81;;;18.77;29.32
67803;BME280;54601;51.378;-1.342;2023-04-07T04:28:07;100598.43;;;19.04;29.25
67803;BME280;54601;51.378;-1.342;2023-04-07T04:30:32;100598.82;;;18.91;29.36
67803;BME280;54601;51.378;-1.342;2023-04-07T04:32:57;100601.61;;;18.82;29.20
67803;BME280;54601;51.378;-1.342;2023-04-07T04:35:22;100605.81;;;18.98;29.23
67803;BME280;54601;51.378;-1.342;2023-04-07T04:37:47;100607.98;;;18.93;29.30
67803;BME280;54601;51.378;-1.342;2023-04-07T04:40:13;100610.27;;;18.90;29.31
67803;BME280;54601;51.378;-1.342;2023-04-07T04:42:38;100611.58;;;18.82;29.38
67803;BME280;54601;51.378;-1.342;2023-04-07T04:45:04;100611.21;;;18.90;29.26
67803;BME280;54601;51.378;-1.342;2023-04-07T04:47:28;100619.43;;;18.76;29.41
67803;BME280;54601;51.378;-1.342;2023-04-07T04:49:53;100620.23;;;18.84;29.33
67803;BME280;54601;51.378;-1.342;2023-04-07T04:52:18;100624.84;;;18.92;29.19
67803;BME280;54601;51.378;-1.342;2023-04-07T04:54:43;100626.05;;;18.85;29.26
67803;BME280;54601;51.378;-1.342;2023-04-07T04:57:09;100627.66;;;18.83;29.26
67803;BME280;54601;51.378;-1.342;2023-04-07T04:59:34;100628.97;;;18.86;29.23
67803;BME280;54601;51.378;-1.342;2023-04-07T05:01:59;100629.11;;;18.72;29.11
67803;BME280;54601;51.378;-1.342;2023-04-07T05:04:24;100628.43;;;18.74;29.09
67803;BME280;54601;51.378;-1.342;2023-04-07T05:06:50;100629.64;;;18.96;29.03
67803;BME280;54601;51.378;-1.342;2023-04-07T05:09:15;100635.14;;;18.82;29.23
67803;BME280;54601;51.378;-1.342;2023-04-07T05:11:40;100635.30;;;18.85;29.14
67803;BME280;54601;51.378;-1.342;2023-04-07T05:14:05;100632.54;;;18.92;29.05
67803;BME280;54601;51.378;-1.342;2023-04-07T05:16:30;100634.16;;;18.73;29.24
67803;BME280;54601;51.378;-1.342;2023-04-07T05:18:55;100632.14;;;18.58;29.12
67803;BME280;54601;51.378;-1.342;2023-04-07T05:21:20;100634.85;;;18.88;29.03
67803;BME280;54601;51.378;-1.342;2023-04-07T05:23:45;100635.02;;;18.89;29.03
67803;BME280;54601;51.378;-1.342;2023-04-07T05:26:11;100640.02;;;18.69;29.24
67803;BME280;54601;51.378;-1.342;2023-04-07T05:28:36;100640.77;;;18.74;28.89
67803;BME280;54601;51.378;-1.342;2023-04-07T05:31:01;100643.08;;;18.82;29.03
67803;BME280;54601;51.378;-1.342;2023-04-07T05:33:26;100645.64;;;18.85;28.99
67803;BME280;54601;51.378;-1.342;2023-04-07T05:35:51;100648.65;;;18.78;29.04
67803;BME280;54601;51.378;-1.342;2023-04-07T05:38:17;100648.33;;;18.79;29.02
67803;BME280;54601;51.378;-1.342;2023-04-07T05:40:42;100652.43;;;18.89;28.92
67803;BME280;54601;51.378;-1.342;2023-04-07T05:43:07;100656.11;;;18.82;28.98
67803;BME280;54601;51.378;-1.342;2023-04-07T05:45:32;100665.49;;;18.63;29.18
67803;BME280;54601;51.378;-1.342;2023-04-07T05:47:57;100673.05;;;18.61;29.22
67803;BME280;54601;51.378;-1.342;2023-04-07T05:50:23;100676.68;;;18.66;29.17
67803;BME280;54601;51.378;-1.342;2023-04-07T05:52:48;100680.32;;;19.19;28.88
67803;BME280;54601;51.378;-1.342;2023-04-07T05:55:13;100677.89;;;18.82;28.98
67803;BME280;54601;51.378;-1.342;2023-04-07T05:57:38;100679.15;;;18.87;29.20
67803;BME280;54601;51.378;-1.342;2023-04-07T06:00:05;100682.56;;;18.74;29.08
67803;BME280;54601;51.378;-1.342;2023-04-07T06:02:29;100682.18;;;18.69;29.14
67803;BME280;54601;51.378;-1.342;2023-04-07T06:04:54;100684.54;;;18.83;28.98
67803;BME280;54601;51.378;-1.342;2023-04-07T06:07:19;100689.83;;;18.73;29.08
67803;BME280;54601;51.378;-1.342;2023-04-07T06:09:44;100691.11;;;18.70;28.87
67803;BME280;54601;51.378;-1.342;2023-04-07T06:12:10;100688.84;;;18.74;28.87
67803;BME280;54601;51.378;-1.342;2023-04-07T06:14:35;100691.04;;;19.01;28.57
67803;BME280;54601;51.378;-1.342;2023-04-07T06:17:00;100696.19;;;18.81;28.79
67803;BME280;54601;51.378;-1.342;2023-04-07T06:19:25;100701.01;;;18.91;28.67
67803;BME280;54601;51.378;-1.342;2023-04-07T06:21:50;100704.35;;;19.25;28.54
67803;BME280;54601;51.378;-1.342;2023-04-07T06:24:15;100702.91;;;19.19;28.59
67803;BME280;54601;51.378;-1.342;2023-04-07T06:26:41;100707.51;;;19.05;28.78
67803;BME280;54601;51.378;-1.342;2023-04-07T06:29:06;100709.93;;;18.77;28.83
67803;BME280;54601;51.378;-1.342;2023-04-07T06:31:31;100715.91;;;18.50;28.91
67803;BME280;54601;51.378;-1.342;2023-04-07T06:33:56;100718.80;;;18.77;29.06
67803;BME280;54601;51.378;-1.342;2023-04-07T06:36:21;100719.74;;;18.63;29.32
67803;BME280;54601;51.378;-1.342;2023-04-07T06:38:46;100715.30;;;18.52;29.27
67803;BME280;54601;51.378;-1.342;2023-04-07T06:41:12;100717.90;;;18.55;29.43
67803;BME280;54601;51.378;-1.342;2023-04-07T06:43:37;100719.03;;;18.76;29.35
67803;BME280;54601;51.378;-1.342;2023-04-07T06:46:02;100722.37;;;18.16;29.96
67803;BME280;54601;51.378;-1.342;2023-04-07T06:48:27;100722.20;;;17.98;30.01
67803;BME280;54601;51.378;-1.342;2023-04-07T06:50:52;100722.48;;;18.06;30.19
67803;BME280;54601;51.378;-1.342;2023-04-07T06:53:17;100723.14;;;17.88;30.40
67803;BME280;54601;51.378;-1.342;2023-04-07T06:55:43;100726.77;;;18.11;29.86
67803;BME280;54601;51.378;-1.342;2023-04-07T06:58:08;100729.57;;;18.50;29.62
67803;BME280;54601;51.378;-1.342;2023-04-07T07:00:33;100729.60;;;18.68;29.43
67803;BME280;54601;51.378;-1.342;2023-04-07T07:02:58;100729.32;;;18.83;29.33
67803;BME280;54601;51.378;-1.342;2023-04-07T07:05:23;100724.74;;;18.71;29.50
67803;BME280;54601;51.378;-1.342;2023-04-07T07:07:49;100724.96;;;18.73;29.51
67803;BME280;54601;51.378;-1.342;2023-04-07T07:10:14;100727.99;;;18.51;29.51
67803;BME280;54601;51.378;-1.342;2023-04-07T07:12:39;100729.88;;;18.70;29.65
67803;BME280;54601;51.378;-1.342;2023-04-07T07:15:05;100733.81;;;18.50;29.60
67803;BME280;54601;51.378;-1.342;2023-04-07T07:17:29;100740.30;;;19.14;29.25
67803;BME280;54601;51.378;-1.342;2023-04-07T07:19:54;100741.83;;;18.71;29.49
67803;BME280;54601;51.378;-1.342;2023-04-07T07:22:19;100742.84;;;19.01;29.49
67803;BME280;54601;51.378;-1.342;2023-04-07T07:24:44;100742.37;;;19.15;29.27
67803;BME280;54601;51.378;-1.342;2023-04-07T07:27:09;100743.44;;;19.86;28.61
67803;BME280;54601;51.378;-1.342;2023-04-07T07:29:34;100749.19;;;20.05;28.49
67803;BME280;54601;51.378;-1.342;2023-04-07T07:32:00;100754.46;;;20.19;28.34
67803;BME280;54601;51.378;-1.342;2023-04-07T07:34:25;100758.65;;;20.42;28.17
67803;BME280;54601;51.378;-1.342;2023-04-07T07:36:50;100761.29;;;20.09;28.12
67803;BME280;54601;51.378;-1.342;2023-04-07T07:39:15;100762.19;;;20.55;28.19
67803;BME280;54601;51.378;-1.342;2023-04-07T07:41:40;100761.23;;;20.59;28.17
67803;BME280;54601;51.378;-1.342;2023-04-07T07:44:05;100766.56;;;20.31;28.24
67803;BME280;54601;51.378;-1.342;2023-04-07T07:46:30;100768.68;;;20.36;28.04
67803;BME280;54601;51.378;-1.342;2023-04-07T07:48:55;100767.49;;;20.39;28.02
67803;BME280;54601;51.378;-1.342;2023-04-07T07:51:20;100764.53;;;20.39;28.05
67803;BME280;54601;51.378;-1.342;2023-04-07T07:53:45;100763.73;;;20.44;28.01
67803;BME280;54601;51.378;-1.342;2023-04-07T07:56:11;100762.93;;;20.71;27.98
67803;BME280;54601;51.378;-1.342;2023-04-07T07:58:36;100763.26;;;20.61;27.90
67803;BME280;54601;51.378;-1.342;2023-04-07T08:01:01;100766.99;;;20.67;27.87
67803;BME280;54601;51.378;-1.342;2023-04-07T08:03:26;100773.42;;;20.76;27.80
67803;BME280;54601;51.378;-1.342;2023-04-07T08:05:51;100774.99;;;20.86;27.73
67803;BME280;54601;51.378;-1.342;2023-04-07T08:08:16;100776.39;;;20.84;27.78
67803;BME280;54601;51.378;-1.342;2023-04-07T08:10:41;100776.28;;;20.93;27.71
67803;BME280;54601;51.378;-1.342;2023-04-07T08:13:06;100777.36;;;21.23;27.67
67803;BME280;54601;51.378;-1.342;2023-04-07T08:15:31;100777.05;;;20.86;27.86
67803;BME280;54601;51.378;-1.342;2023-04-07T08:17:56;100774.72;;;21.09;27.66
67803;BME280;54601;51.378;-1.342;2023-04-07T08:20:21;100777.95;;;21.12;27.68
67803;BME280;54601;51.378;-1.342;2023-04-07T08:22:47;100781.17;;;21.13;27.67
67803;BME280;54601;51.378;-1.342;2023-04-07T08:25:11;100783.68;;;21.26;27.60
67803;BME280;54601;51.378;-1.342;2023-04-07T08:27:36;100784.26;;;21.34;27.57
67803;BME280;54601;51.378;-1.342;2023-04-07T08:30:03;100786.56;;;21.38;27.56
67803;BME280;54601;51.378;-1.342;2023-04-07T08:32:35;100786.65;;;21.41;27.58
67803;BME280;54601;51.378;-1.342;2023-04-07T08:34:54;100785.54;;;21.59;27.43
67803;BME280;54601;51.378;-1.342;2023-04-07T08:37:16;100786.65;;;21.64;27.40
67803;BME280;54601;51.378;-1.342;2023-04-07T08:39:41;100790.86;;;21.70;27.37
67803;BME280;54601;51.378;-1.342;2023-04-07T08:42:07;100787.99;;;21.76;27.34
67803;BME280;54601;51.378;-1.342;2023-04-07T08:44:33;100788.22;;;21.55;27.34
67803;BME280;54601;51.378;-1.342;2023-04-07T08:47:00;100790.51;;;21.84;27.35
67803;BME280;54601;51.378;-1.342;2023-04-07T08:49:27;100789.94;;;21.87;27.35
67803;BME280;54601;51.378;-1.342;2023-04-07T08:51:49;100790.30;;;21.63;27.36
67803;BME280;54601;51.378;-1.342;2023-04-07T08:54:15;100787.25;;;21.74;27.30
67803;BME280;54601;51.378;-1.342;2023-04-07T08:56:40;100791.97;;;21.72;27.36
67803;BME280;54601;51.378;-1.342;2023-04-07T08:59:06;100788.30;;;21.80;27.30
67803;BME280;54601;51.378;-1.342;2023-04-07T09:01:30;100786.14;;;21.58;27.31
67803;BME280;54601;51.378;-1.342;2023-04-07T09:03:56;100784.76;;;22.10;27.34
67803;BME280;54601;51.378;-1.342;2023-04-07T09:06:20;100785.48;;;21.66;27.33
67803;BME280;54601;51.378;-1.342;2023-04-07T09:08:46;100788.67;;;21.96;27.30
67803;BME280;54601;51.378;-1.342;2023-04-07T09:11:12;100789.02;;;21.97;27.32
67803;BME280;54601;51.378;-1.342;2023-04-07T09:13:38;100787.21;;;22.26;27.32
67803;BME280;54601;51.378;-1.342;2023-04-07T09:16:05;100789.62;;;21.97;27.39
67803;BME280;54601;51.378;-1.342;2023-04-07T09:18:31;100791.85;;;22.04;27.33
67803;BME280;54601;51.378;-1.342;2023-04-07T09:20:57;100793.63;;;22.05;27.34
67803;BME280;54601;51.378;-1.342;2023-04-07T09:23:27;100793.39;;;21.84;27.35
67803;BME280;54601;51.378;-1.342;2023-04-07T09:25:47;100790.11;;;22.06;27.37
67803;BME280;54601;51.378;-1.342;2023-04-07T09:28:13;100788.19;;;22.15;27.29
67803;BME280;54601;51.378;-1.342;2023-04-07T09:33:05;100788.51;;;22.18;27.30
67803;BME280;54601;51.378;-1.342;2023-04-07T09:35:31;100786.66;;;21.96;27.33
67803;BME280;54601;51.378;-1.342;2023-04-07T09:38:02;100785.84;;;21.95;27.30
67803;BME280;54601;51.378;-1.342;2023-04-07T09:40:25;100783.47;;;22.11;27.16
67803;BME280;54601;51.378;-1.342;2023-04-07T09:42:49;100785.68;;;22.44;27.09
67803;BME280;54601;51.378;-1.342;2023-04-07T09:45:23;100783.40;;;22.27;27.05
67803;BME280;54601;51.378;-1.342;2023-04-07T09:47:41;100781.83;;;22.34;27.00
67803;BME280;54601;51.378;-1.342;2023-04-07T09:50:07;100784.07;;;22.39;26.97
67803;BME280;54601;51.378;-1.342;2023-04-07T09:54:59;100783.37;;;22.40;26.94
67803;BME280;54601;51.378;-1.342;2023-04-07T09:57:25;100779.86;;;22.46;27.13
67803;BME280;54601;51.378;-1.342;2023-04-07T09:59:51;100780.38;;;22.24;27.18
67803;BME280;54601;51.378;-1.342;2023-04-07T10:02:17;100781.10;;;22.42;27.25
67803;BME280;54601;51.378;-1.342;2023-04-07T10:04:43;100783.50;;;22.22;27.24
67803;BME280;54601;51.378;-1.342;2023-04-07T10:07:09;100783.51;;;22.19;27.32
67803;BME280;54601;51.378;-1.342;2023-04-07T10:09:35;100781.26;;;22.20;27.32
67803;BME280;54601;51.378;-1.342;2023-04-07T10:12:01;100782.52;;;22.26;27.26
67803;BME280;54601;51.378;-1.342;2023-04-07T10:14:29;100782.24;;;22.19;27.36
67803;BME280;54601;51.378;-1.342;2023-04-07T10:16:53;100780.77;;;22.26;27.35
67803;BME280;54601;51.378;-1.342;2023-04-07T10:19:19;100782.46;;;22.17;27.46
67803;BME280;54601;51.378;-1.342;2023-04-07T10:21:48;100781.13;;;22.25;27.38
67803;BME280;54601;51.378;-1.342;2023-04-07T10:24:21;100778.77;;;22.09;27.69
67803;BME280;54601;51.378;-1.342;2023-04-07T10:26:37;100779.95;;;22.50;27.74
67803;BME280;54601;51.378;-1.342;2023-04-07T10:29:07;100780.14;;;22.34;27.78
67803;BME280;54601;51.378;-1.342;2023-04-07T10:31:29;100781.73;;;22.15;27.88
67803;BME280;54601;51.378;-1.342;2023-04-07T10:33:54;100782.70;;;22.09;27.72
67803;BME280;54601;51.378;-1.342;2023-04-07T10:36:21;100780.80;;;22.04;27.85
67803;BME280;54601;51.378;-1.342;2023-04-07T10:43:39;100779.50;;;21.91;28.08
67803;BME280;54601;51.378;-1.342;2023-04-07T10:46:05;100780.95;;;21.77;28.26
67803;BME280;54601;51.378;-1.342;2023-04-07T10:48:30;100778.70;;;22.01;28.29
67803;BME280;54601;51.378;-1.342;2023-04-07T10:53:22;100778.27;;;21.94;28.34
67803;BME280;54601;51.378;-1.342;2023-04-07T10:55:53;100773.21;;;22.17;28.17
67803;BME280;54601;51.378;-1.342;2023-04-07T10:58:17;100774.37;;;21.85;28.28
67803;BME280;54601;51.378;-1.342;2023-04-07T11:00:40;100773.87;;;21.85;28.40
67803;BME280;54601;51.378;-1.342;2023-04-07T11:03:09;100765.33;;;22.16;28.29
67803;BME280;54601;51.378;-1.342;2023-04-07T11:05:32;100765.62;;;22.05;28.32
67803;BME280;54601;51.378;-1.342;2023-04-07T11:07:58;100765.05;;;21.99;28.26
67803;BME280;54601;51.378;-1.342;2023-04-07T11:10:24;100767.84;;;21.86;28.39
67803;BME280;54601;51.378;-1.342;2023-04-07T11:12:59;100769.59;;;22.16;28.47
67803;BME280;54601;51.378;-1.342;2023-04-07T11:15:17;100770.57;;;21.85;28.61
67803;BME280;54601;51.378;-1.342;2023-04-07T11:17:42;100770.49;;;22.01;28.44
67803;BME280;54601;51.378;-1.342;2023-04-07T11:20:08;100768.52;;;21.96;28.44
67803;BME280;54601;51.378;-1.342;2023-04-07T11:22:34;100767.00;;;21.94;28.42
67803;BME280;54601;51.378;-1.342;2023-04-07T11:25:00;100765.36;;;21.95;28.42
67803;BME280;54601;51.378;-1.342;2023-04-07T11:27:26;100765.62;;;21.93;28.43
67803;BME280;54601;51.378;-1.342;2023-04-07T11:29:52;100767.03;;;21.85;28.54
67803;BME280;54601;51.378;-1.342;2023-04-07T11:32:22;100766.99;;;21.95;28.44
67803;BME280;54601;51.378;-1.342;2023-04-07T11:34:44;100764.87;;;21.92;28.41
67803;BME280;54601;51.378;-1.342;2023-04-07T11:37:18;100765.35;;;21.87;28.44
67803;BME280;54601;51.378;-1.342;2023-04-07T11:39:36;100766.32;;;22.05;28.27
67803;BME280;54601;51.378;-1.342;2023-04-07T11:42:02;100769.15;;;21.93;28.60
67803;BME280;54601;51.378;-1.342;2023-04-07T11:44:27;100767.31;;;22.07;28.47
67803;BME280;54601;51.378;-1.342;2023-04-07T11:46:55;100765.65;;;21.97;28.48
67803;BME280;54601;51.378;-1.342;2023-04-07T11:49:19;100758.39;;;21.88;28.21
67803;BME280;54601;51.378;-1.342;2023-04-07T11:51:46;100755.57;;;22.23;28.04
67803;BME280;54601;51.378;-1.342;2023-04-07T11:54:12;100749.35;;;22.26;28.02
67803;BME280;54601;51.378;-1.342;2023-04-07T11:56:43;100748.26;;;21.92;28.09
67803;BME280;54601;51.378;-1.342;2023-04-07T11:59:04;100751.58;;;22.17;28.03
67803;BME280;54601;51.378;-1.342;2023-04-07T12:01:38;100747.98;;;22.06;28.12
67803;BME280;54601;51.378;-1.342;2023-04-07T12:03:57;100754.43;;;21.82;28.50
67803;BME280;54601;51.378;-1.342;2023-04-07T12:06:26;100752.11;;;21.59;28.56
67803;BME280;54601;51.378;-1.342;2023-04-07T12:08:47;100753.65;;;21.58;28.58
67803;BME280;54601;51.378;-1.342;2023-04-07T12:11:13;100754.20;;;21.92;28.56
67803;BME280;54601;51.378;-1.342;2023-04-07T12:13:39;100751.20;;;22.02;28.42
67803;BME280;54601;51.378;-1.342;2023-04-07T12:16:06;100753.22;;;21.80;28.43
67803;BME280;54601;51.378;-1.342;2023-04-07T12:18:31;100754.67;;;21.95;28.48
67803;BME280;54601;51.378;-1.342;2023-04-07T12:20:57;100753.51;;;21.90;28.54
67803;BME280;54601;51.378;-1.342;2023-04-07T12:23:24;100753.04;;;22.07;28.33
67803;BME280;54601;51.378;-1.342;2023-04-07T12:25:50;100752.80;;;21.83;28.55
67803;BME280;54601;51.378;-1.342;2023-04-07T12:28:15;100753.91;;;21.53;28.60
67803;BME280;54601;51.378;-1.342;2023-04-07T12:30:41;100753.34;;;21.70;28.64
67803;BME280;54601;51.378;-1.342;2023-04-07T12:33:07;100755.64;;;21.58;28.77
67803;BME280;54601;51.378;-1.342;2023-04-07T12:35:33;100754.11;;;22.01;28.58
67803;BME280;54601;51.378;-1.342;2023-04-07T12:37:59;100753.44;;;21.57;28.73
67803;BME280;54601;51.378;-1.342;2023-04-07T12:40:26;100752.86;;;21.34;28.75
67803;BME280;54601;51.378;-1.342;2023-04-07T12:42:51;100751.98;;;22.00;28.58
67803;BME280;54601;51.378;-1.342;2023-04-07T12:45:18;100752.71;;;21.64;28.65
67803;BME280;54601;51.378;-1.342;2023-04-07T12:47:44;100754.26;;;21.72;28.58